sensor_id;sensor_type;location;lat;lon;timestamp;pressure;altitude;pressure_sealevel;temperature;humidity
61026;BME280;46911;32.650;-16.902;2023-05-11T00:00:40;101877.00;;;19.30;74.11
61026;BME280;46911;32.650;-16.902;2023-05-11T00:02:45;101882.41;;;19.30;73.78
61026;BME280;46911;32.650;-16.902;2023-05-11T00:04:49;101878.22;;;19.16;73.97
61026;BME280;46911;32.650;-16.902;2023-05-11T00:06:54;101888.09;;;19.27;73.38
61026;BME280;46911;32.650;-16.902;2023-05-11T00:08:55;101858.69;;;19.13;73.40
61026;BME280;46911;32.650;-16.902;2023-05-11T00:10:56;101887.31;;;19.15;73.57
61026;BME280;46911;32.650;-16.902;2023-05-11T00:13:00;101878.59;;;19.12;73.70
61026;BME280;46911;32.650;-16.902;2023-05-11T00:15:01;101875.63;;;18.94;73.43
61026;BME280;46911;32.650;-16.902;2023-05-11T00:17:04;101885.72;;;18.92;73.59
61026;BME280;46911;32.650;-16.902;2023-05-11T00:19:05;101870.38;;;18.81;73.53
61026;BME280;46911;32.650;-16.902;2023-05-11T00:21:06;101885.34;;;18.85;73.78
61026;BME280;46911;32.650;-16.902;2023-05-11T00:23:07;101886.09;;;18.87;73.77
61026;BME280;46911;32.650;-16.902;2023-05-11T00:25:08;101885.63;;;18.82;73.95
61026;BME280;46911;32.650;-16.902;2023-05-11T00:27:11;101861.88;;;18.64;72.10
61026;BME280;46911;32.650;-16.902;2023-05-11T00:29:12;101891.66;;;18.74;71.48
61026;BME280;46911;32.650;-16.902;2023-05-11T00:31:13;101875.59;;;18.72;70.98
61026;BME280;46911;32.650;-16.902;2023-05-11T00:33:17;101877.44;;;18.72;70.59
61026;BME280;46911;32.650;-16.902;2023-05-11T00:35:18;101883.22;;;18.67;70.46
61026;BME280;46911;32.650;-16.902;2023-05-11T00:37:24;101879.00;;;18.74;69.40
61026;BME280;46911;32.650;-16.902;2023-05-11T00:39:25;101865.69;;;18.62;69.60
61026;BME280;46911;32.650;-16.902;2023-05-11T00:41:26;101871.69;;;18.65;69.64
61026;BME280;46911;32.650;-16.902;2023-05-11T00:43:29;101864.47;;;18.54;69.57
61026;BME280;46911;32.650;-16.902;2023-05-11T00:45:33;101867.75;;;18.69;68.43
61026;BME280;46911;32.650;-16.902;2023-05-11T00:47:37;101886.88;;;18.78;67.29
61026;BME280;46911;32.650;-16.902;2023-05-11T00:49:40;101861.38;;;18.59;67.36
61026;BME280;46911;32.650;-16.902;2023-05-11T00:51:45;101855.38;;;18.55;67.35
61026;BME280;46911;32.650;-16.902;2023-05-11T00:53:52;101864.72;;;18.51;67.57
61026;BME280;46911;32.650;-16.902;2023-05-11T00:55:57;101853.28;;;18.59;67.90
61026;BME280;46911;32.650;-16.902;2023-05-11T00:57:58;101866.94;;;18.57;69.47
61026;BME280;46911;32.650;-16.902;2023-05-11T01:00:03;101862.00;;;18.63;70.95
61026;BME280;46911;32.650;-16.902;2023-05-11T01:02:04;101876.75;;;18.80;69.31
61026;BME280;46911;32.650;-16.902;2023-05-11T01:04:05;101871.91;;;18.73;67.98
61026;BME280;46911;32.650;-16.902;2023-05-11T01:06:12;101881.69;;;18.74;68.79
61026;BME280;46911;32.650;-16.902;2023-05-11T01:08:23;101863.31;;;18.68;68.94
61026;BME280;46911;32.650;-16.902;2023-05-11T01:10:43;101881.69;;;18.74;68.81
61026;BME280;46911;32.650;-16.902;2023-05-11T01:15:01;101851.06;;;18.64;67.63
61026;BME280;46911;32.650;-16.902;2023-05-11T01:17:14;101858.06;;;18.55;68.36
61026;BME280;46911;32.650;-16.902;2023-05-11T01:21:53;101850.38;;;18.51;69.75
61026;BME280;46911;32.650;-16.902;2023-05-11T01:31:05;101845.00;;;18.39;71.30
61026;BME280;46911;32.650;-16.902;2023-05-11T01:33:12;101853.06;;;18.51;70.82
61026;BME280;46911;32.650;-16.902;2023-05-11T01:35:20;101852.84;;;18.43;70.36
61026;BME280;46911;32.650;-16.902;2023-05-11T01:37:22;101831.75;;;18.36;70.69
61026;BME280;46911;32.650;-16.902;2023-05-11T01:39:35;101836.53;;;18.33;70.40
61026;BME280;46911;32.650;-16.902;2023-05-11T01:41:49;101851.97;;;18.42;70.79
61026;BME280;46911;32.650;-16.902;2023-05-11T01:43:57;101851.63;;;18.35;71.06
61026;BME280;46911;32.650;-16.902;2023-05-11T01:45:59;101846.50;;;18.32;70.86
61026;BME280;46911;32.650;-16.902;2023-05-11T01:48:07;101831.41;;;18.18;70.64
61026;BME280;46911;32.650;-16.902;2023-05-11T01:50:09;101848.72;;;18.27;71.17
61026;BME280;46911;32.650;-16.902;2023-05-11T01:52:14;101819.03;;;18.16;71.24
61026;BME280;46911;32.650;-16.902;2023-05-11T01:54:19;101831.78;;;18.25;69.34
61026;BME280;46911;32.650;-16.902;2023-05-11T01:56:26;101833.00;;;18.21;69.37
61026;BME280;46911;32.650;-16.902;2023-05-11T01:58:30;101789.63;;;17.90;69.55
61026;BME280;46911;32.650;-16.902;2023-05-11T02:00:35;101833.75;;;18.23;69.60
61026;BME280;46911;32.650;-16.902;2023-05-11T02:02:36;101814.16;;;18.10;68.95
61026;BME280;46911;32.650;-16.902;2023-05-11T02:04:41;101809.88;;;18.07;68.77
61026;BME280;46911;32.650;-16.902;2023-05-11T02:06:43;101812.81;;;18.04;68.62
61026;BME280;46911;32.650;-16.902;2023-05-11T02:08:52;101832.66;;;18.14;68.86
61026;BME280;46911;32.650;-16.902;2023-05-11T02:11:01;101815.88;;;18.11;68.15
61026;BME280;46911;32.650;-16.902;2023-05-11T02:13:04;101826.28;;;18.15;67.76
61026;BME280;46911;32.650;-16.902;2023-05-11T02:15:07;101825.56;;;18.13;67.53
61026;BME280;46911;32.650;-16.902;2023-05-11T02:17:09;101798.22;;;17.95;67.14
61026;BME280;46911;32.650;-16.902;2023-05-11T02:19:14;101805.09;;;17.99;67.44
61026;BME280;46911;32.650;-16.902;2023-05-11T02:21:19;101827.44;;;18.01;67.75
61026;BME280;46911;32.650;-16.902;2023-05-11T02:23:21;101802.13;;;17.91;67.66
61026;BME280;46911;32.650;-16.902;2023-05-11T02:25:24;101833.69;;;18.02;67.36
61026;BME280;46911;32.650;-16.902;2023-05-11T02:27:28;101796.50;;;17.83;67.28
61026;BME280;46911;32.650;-16.902;2023-05-11T02:29:33;101795.41;;;17.85;67.13
61026;BME280;46911;32.650;-16.902;2023-05-11T02:31:42;101784.59;;;17.85;67.12
61026;BME280;46911;32.650;-16.902;2023-05-11T02:33:48;101793.81;;;17.94;66.63
61026;BME280;46911;32.650;-16.902;2023-05-11T02:35:50;101797.47;;;17.93;66.77
61026;BME280;46911;32.650;-16.902;2023-05-11T02:38:00;101787.19;;;17.87;66.77
61026;BME280;46911;32.650;-16.902;2023-05-11T02:40:23;101790.50;;;17.79;66.72
61026;BME280;46911;32.650;-16.902;2023-05-11T02:42:26;101777.28;;;17.76;66.26
61026;BME280;46911;32.650;-16.902;2023-05-11T02:44:33;101783.63;;;17.75;65.75
61026;BME280;46911;32.650;-16.902;2023-05-11T02:46:39;101788.56;;;17.81;65.71
61026;BME280;46911;32.650;-16.902;2023-05-11T02:48:45;101791.25;;;17.81;65.61
61026;BME280;46911;32.650;-16.902;2023-05-11T02:50:50;101788.91;;;17.77;65.74
61026;BME280;46911;32.650;-16.902;2023-05-11T02:52:54;101781.69;;;17.66;66.12
61026;BME280;46911;32.650;-16.902;2023-05-11T02:55:00;101775.06;;;17.70;65.86
61026;BME280;46911;32.650;-16.902;2023-05-11T02:57:02;101764.25;;;17.70;65.52
61026;BME280;46911;32.650;-16.902;2023-05-11T02:59:06;101766.97;;;17.70;65.50
61026;BME280;46911;32.650;-16.902;2023-05-11T03:01:07;101781.56;;;17.79;66.06
61026;BME280;46911;32.650;-16.902;2023-05-11T03:03:08;101790.84;;;17.86;66.67
61026;BME280;46911;32.650;-16.902;2023-05-11T03:05:09;101790.13;;;17.84;66.90
61026;BME280;46911;32.650;-16.902;2023-05-11T03:07:12;101770.53;;;17.70;66.45
61026;BME280;46911;32.650;-16.902;2023-05-11T03:09:16;101784.13;;;17.80;65.92
61026;BME280;46911;32.650;-16.902;2023-05-11T03:11:21;101766.47;;;17.65;65.88
61026;BME280;46911;32.650;-16.902;2023-05-11T03:13:23;101762.31;;;17.61;66.13
61026;BME280;46911;32.650;-16.902;2023-05-11T03:15:27;101772.75;;;17.65;66.30
61026;BME280;46911;32.650;-16.902;2023-05-11T03:17:35;101738.28;;;17.57;65.90
61026;BME280;46911;32.650;-16.902;2023-05-11T03:19:42;101767.22;;;17.67;66.11
61026;BME280;46911;32.650;-16.902;2023-05-11T03:21:46;101763.28;;;17.60;66.26
61026;BME280;46911;32.650;-16.902;2023-05-11T03:23:49;101747.94;;;17.71;65.85
61026;BME280;46911;32.650;-16.902;2023-05-11T03:25:51;101752.38;;;17.72;65.72
61026;BME280;46911;32.650;-16.902;2023-05-11T03:27:59;101753.22;;;17.73;65.91
61026;BME280;46911;32.650;-16.902;2023-05-11T03:30:07;101745.41;;;17.59;66.23
61026;BME280;46911;32.650;-16.902;2023-05-11T03:32:13;101766.00;;;17.60;66.31
61026;BME280;46911;32.650;-16.902;2023-05-11T03:34:17;101766.13;;;17.58;66.49
61026;BME280;46911;32.650;-16.902;2023-05-11T03:36:24;101759.00;;;17.57;66.33
61026;BME280;46911;32.650;-16.902;2023-05-11T03:38:31;101746.75;;;17.53;66.56
61026;BME280;46911;32.650;-16.902;2023-05-11T03:40:36;101718.56;;;17.46;66.48
61026;BME280;46911;32.650;-16.902;2023-05-11T03:42:40;101750.09;;;17.45;66.63
61026;BME280;46911;32.650;-16.902;2023-05-11T03:44:45;101725.44;;;17.50;66.53
61026;BME280;46911;32.650;-16.902;2023-05-11T03:47:04;101728.13;;;17.61;66.53
61026;BME280;46911;32.650;-16.902;2023-05-11T03:49:09;101755.81;;;17.74;66.74
61026;BME280;46911;32.650;-16.902;2023-05-11T03:51:13;101739.41;;;17.55;66.78
61026;BME280;46911;32.650;-16.902;2023-05-11T03:53:17;101737.81;;;17.52;66.93
61026;BME280;46911;32.650;-16.902;2023-05-11T03:55:19;101738.28;;;17.57;66.79
61026;BME280;46911;32.650;-16.902;2023-05-11T03:57:25;101763.16;;;17.72;67.05
61026;BME280;46911;32.650;-16.902;2023-05-11T03:59:29;101730.47;;;17.54;67.14
61026;BME280;46911;32.650;-16.902;2023-05-11T04:01:31;101741.47;;;17.51;67.35
61026;BME280;46911;32.650;-16.902;2023-05-11T04:03:45;101760.59;;;17.60;67.54
61026;BME280;46911;32.650;-16.902;2023-05-11T04:05:47;101753.25;;;17.62;67.65
61026;BME280;46911;32.650;-16.902;2023-05-11T04:07:49;101740.75;;;17.49;67.86
61026;BME280;46911;32.650;-16.902;2023-05-11T04:09:52;101754.84;;;17.53;68.10
61026;BME280;46911;32.650;-16.902;2023-05-11T04:11:53;101718.84;;;17.20;68.35
61026;BME280;46911;32.650;-16.902;2023-05-11T04:13:55;101742.50;;;17.28;68.50
61026;BME280;46911;32.650;-16.902;2023-05-11T04:15:58;101743.69;;;17.23;68.78
61026;BME280;46911;32.650;-16.902;2023-05-11T04:17:59;101755.09;;;17.27;68.77
61026;BME280;46911;32.650;-16.902;2023-05-11T04:20:00;101746.78;;;17.19;68.99
61026;BME280;46911;32.650;-16.902;2023-05-11T04:22:01;101766.88;;;17.26;69.24
61026;BME280;46911;32.650;-16.902;2023-05-11T04:24:05;101767.97;;;17.23;68.99
61026;BME280;46911;32.650;-16.902;2023-05-11T04:26:06;101747.88;;;17.16;68.79
61026;BME280;46911;32.650;-16.902;2023-05-11T04:28:07;101719.44;;;17.01;68.31
61026;BME280;46911;32.650;-16.902;2023-05-11T04:30:08;101734.78;;;17.12;68.45
61026;BME280;46911;32.650;-16.902;2023-05-11T04:32:09;101741.03;;;17.12;68.62
61026;BME280;46911;32.650;-16.902;2023-05-11T04:34:10;101753.53;;;17.13;68.72
61026;BME280;46911;32.650;-16.902;2023-05-11T04:36:12;101737.47;;;17.12;68.55
61026;BME280;46911;32.650;-16.902;2023-05-11T04:38:15;101758.28;;;17.21;68.46
61026;BME280;46911;32.650;-16.902;2023-05-11T04:40:16;101757.69;;;17.17;68.66
61026;BME280;46911;32.650;-16.902;2023-05-11T04:42:20;101749.47;;;17.07;68.90
61026;BME280;46911;32.650;-16.902;2023-05-11T04:44:24;101752.91;;;17.10;68.93
61026;BME280;46911;32.650;-16.902;2023-05-11T04:46:25;101744.56;;;17.01;68.77
61026;BME280;46911;32.650;-16.902;2023-05-11T04:48:26;101767.97;;;17.12;68.62
61026;BME280;46911;32.650;-16.902;2023-05-11T04:50:27;101763.44;;;17.13;68.56
61026;BME280;46911;32.650;-16.902;2023-05-11T04:52:31;101734.25;;;16.95;68.70
61026;BME280;46911;32.650;-16.902;2023-05-11T04:54:39;101746.75;;;16.96;68.84
61026;BME280;46911;32.650;-16.902;2023-05-11T04:56:40;101752.28;;;16.95;68.87
61026;BME280;46911;32.650;-16.902;2023-05-11T04:58:41;101760.25;;;16.96;68.93
61026;BME280;46911;32.650;-16.902;2023-05-11T05:00:42;101780.09;;;17.06;69.06
61026;BME280;46911;32.650;-16.902;2023-05-11T05:02:43;101780.31;;;17.03;69.30
61026;BME280;46911;32.650;-16.902;2023-05-11T05:04:47;101758.97;;;16.89;69.23
61026;BME280;46911;32.650;-16.902;2023-05-11T05:06:51;101781.56;;;16.99;69.47
61026;BME280;46911;32.650;-16.902;2023-05-11T05:08:54;101777.88;;;17.00;69.45
61026;BME280;46911;32.650;-16.902;2023-05-11T05:11:00;101760.50;;;16.93;69.56
61026;BME280;46911;32.650;-16.902;2023-05-11T05:13:03;101784.03;;;17.02;69.99
61026;BME280;46911;32.650;-16.902;2023-05-11T05:15:05;101781.22;;;17.04;70.06
61026;BME280;46911;32.650;-16.902;2023-05-11T05:17:08;101775.06;;;17.02;69.92
61026;BME280;46911;32.650;-16.902;2023-05-11T05:19:13;101752.41;;;16.93;69.94
61026;BME280;46911;32.650;-16.902;2023-05-11T05:21:17;101741.84;;;16.90;70.25
61026;BME280;46911;32.650;-16.902;2023-05-11T05:23:18;101772.28;;;17.15;70.50
61026;BME280;46911;32.650;-16.902;2023-05-11T05:25:20;101772.75;;;17.09;70.81
61026;BME280;46911;32.650;-16.902;2023-05-11T05:27:27;101774.47;;;17.10;70.68
61026;BME280;46911;32.650;-16.902;2023-05-11T05:29:28;101786.13;;;17.21;70.65
61026;BME280;46911;32.650;-16.902;2023-05-11T05:31:30;101775.94;;;17.14;70.44
61026;BME280;46911;32.650;-16.902;2023-05-11T05:33:33;101788.06;;;17.19;70.30
61026;BME280;46911;32.650;-16.902;2023-05-11T05:35:34;101764.91;;;17.05;70.27
61026;BME280;46911;32.650;-16.902;2023-05-11T05:37:37;101758.66;;;17.05;69.96
61026;BME280;46911;32.650;-16.902;2023-05-11T05:39:38;101782.31;;;17.13;69.77
61026;BME280;46911;32.650;-16.902;2023-05-11T05:41:40;101786.22;;;17.09;69.79
61026;BME280;46911;32.650;-16.902;2023-05-11T05:43:43;101773.34;;;17.01;69.73
61026;BME280;46911;32.650;-16.902;2023-05-11T05:45:49;101757.78;;;16.93;69.98
61026;BME280;46911;32.650;-16.902;2023-05-11T05:47:55;101756.50;;;16.86;70.06
61026;BME280;46911;32.650;-16.902;2023-05-11T05:49:56;101783.66;;;16.96;70.00
61026;BME280;46911;32.650;-16.902;2023-05-11T05:52:01;101759.69;;;16.80;70.05
61026;BME280;46911;32.650;-16.902;2023-05-11T05:54:04;101772.47;;;16.89;70.14
61026;BME280;46911;32.650;-16.902;2023-05-11T05:56:05;101776.25;;;16.86;70.17
61026;BME280;46911;32.650;-16.902;2023-05-11T05:58:08;101762.75;;;16.75;70.30
61026;BME280;46911;32.650;-16.902;2023-05-11T06:00:10;101778.44;;;16.81;70.40
61026;BME280;46911;32.650;-16.902;2023-05-11T06:02:14;101754.28;;;16.68;70.37
61026;BME280;46911;32.650;-16.902;2023-05-11T06:04:15;101771.97;;;16.84;70.63
61026;BME280;46911;32.650;-16.902;2023-05-11T06:06:21;101754.03;;;16.71;70.43
61026;BME280;46911;32.650;-16.902;2023-05-11T06:08:27;101759.41;;;16.71;70.49
61026;BME280;46911;32.650;-16.902;2023-05-11T06:10:33;101766.53;;;16.72;70.67
61026;BME280;46911;32.650;-16.902;2023-05-11T06:12:34;101778.56;;;16.80;70.75
61026;BME280;46911;32.650;-16.902;2023-05-11T06:14:36;101777.69;;;16.79;70.86
61026;BME280;46911;32.650;-16.902;2023-05-11T06:16:39;101782.94;;;16.81;70.90
61026;BME280;46911;32.650;-16.902;2023-05-11T06:18:45;101765.69;;;16.72;70.84
61026;BME280;46911;32.650;-16.902;2023-05-11T06:20:51;101769.97;;;16.74;70.79
61026;BME280;46911;32.650;-16.902;2023-05-11T06:22:53;101781.00;;;16.83;70.77
61026;BME280;46911;32.650;-16.902;2023-05-11T06:24:56;101789.50;;;16.89;71.01
61026;BME280;46911;32.650;-16.902;2023-05-11T06:26:59;101771.19;;;16.82;70.77
61026;BME280;46911;32.650;-16.902;2023-05-11T06:29:00;101790.63;;;16.98;70.62
61026;BME280;46911;32.650;-16.902;2023-05-11T06:31:05;101777.63;;;17.03;70.45
61026;BME280;46911;32.650;-16.902;2023-05-11T06:33:11;101784.50;;;17.07;70.44
61026;BME280;46911;32.650;-16.902;2023-05-11T06:35:13;101790.16;;;17.16;70.22
61026;BME280;46911;32.650;-16.902;2023-05-11T06:37:22;101779.84;;;17.21;70.42
61026;BME280;46911;32.650;-16.902;2023-05-11T06:39:24;101726.44;;;16.92;70.54
61026;BME280;46911;32.650;-16.902;2023-05-11T06:41:27;101788.94;;;17.31;70.41
61026;BME280;46911;32.650;-16.902;2023-05-11T06:43:33;101788.34;;;17.39;70.08
61026;BME280;46911;32.650;-16.902;2023-05-11T06:45:38;101771.78;;;17.32;70.09
61026;BME280;46911;32.650;-16.902;2023-05-11T06:47:43;101775.34;;;17.44;70.14
61026;BME280;46911;32.650;-16.902;2023-05-11T06:49:44;101759.75;;;17.36;70.26
61026;BME280;46911;32.650;-16.902;2023-05-11T06:51:45;101784.63;;;17.51;70.22
61026;BME280;46911;32.650;-16.902;2023-05-11T06:53:46;101763.31;;;17.48;70.64
61026;BME280;46911;32.650;-16.902;2023-05-11T06:55:47;101760.50;;;17.50;71.02
61026;BME280;46911;32.650;-16.902;2023-05-11T06:57:48;101783.53;;;17.65;71.12
61026;BME280;46911;32.650;-16.902;2023-05-11T06:59:49;101778.84;;;17.79;71.72
61026;BME280;46911;32.650;-16.902;2023-05-11T07:01:54;101771.59;;;17.79;72.11
61026;BME280;46911;32.650;-16.902;2023-05-11T07:03:59;101742.06;;;17.66;72.02
61026;BME280;46911;32.650;-16.902;2023-05-11T07:06:03;101775.03;;;18.04;71.79
61026;BME280;46911;32.650;-16.902;2023-05-11T07:08:04;101783.56;;;18.09;71.84
61026;BME280;46911;32.650;-16.902;2023-05-11T07:10:07;101790.91;;;18.18;71.44
61026;BME280;46911;32.650;-16.902;2023-05-11T07:12:08;101776.84;;;18.15;71.22
61026;BME280;46911;32.650;-16.902;2023-05-11T07:14:09;101765.38;;;18.22;70.68
61026;BME280;46911;32.650;-16.902;2023-05-11T07:16:11;101786.31;;;18.42;70.16
61026;BME280;46911;32.650;-16.902;2023-05-11T07:18:14;101754.41;;;18.35;69.65
61026;BME280;46911;32.650;-16.902;2023-05-11T07:20:16;101759.03;;;18.45;69.22
61026;BME280;46911;32.650;-16.902;2023-05-11T07:22:24;101766.34;;;18.54;69.31
61026;BME280;46911;32.650;-16.902;2023-05-11T07:24:27;101778.56;;;18.69;68.91
61026;BME280;46911;32.650;-16.902;2023-05-11T07:26:28;101776.19;;;18.76;69.21
61026;BME280;46911;32.650;-16.902;2023-05-11T07:28:32;101776.22;;;18.86;68.81
61026;BME280;46911;32.650;-16.902;2023-05-11T07:30:35;101775.31;;;18.97;68.53
61026;BME280;46911;32.650;-16.902;2023-05-11T07:32:38;101757.81;;;18.91;68.26
61026;BME280;46911;32.650;-16.902;2023-05-11T07:34:39;101775.13;;;19.10;68.29
61026;BME280;46911;32.650;-16.902;2023-05-11T07:36:43;101769.25;;;19.04;68.58
61026;BME280;46911;32.650;-16.902;2023-05-11T07:38:46;101762.31;;;19.12;68.01
61026;BME280;46911;32.650;-16.902;2023-05-11T07:40:49;101772.19;;;19.22;67.94
61026;BME280;46911;32.650;-16.902;2023-05-11T07:42:53;101781.66;;;19.38;67.96
61026;BME280;46911;32.650;-16.902;2023-05-11T07:44:53;101762.84;;;19.36;67.06
61026;BME280;46911;32.650;-16.902;2023-05-11T07:46:54;101770.16;;;19.46;66.85
61026;BME280;46911;32.650;-16.902;2023-05-11T07:48:56;101780.16;;;19.55;66.27
61026;BME280;46911;32.650;-16.902;2023-05-11T07:50:59;101792.88;;;19.74;65.83
61026;BME280;46911;32.650;-16.902;2023-05-11T07:53:03;101805.63;;;19.83;65.40
61026;BME280;46911;32.650;-16.902;2023-05-11T07:55:10;101792.47;;;19.79;64.81
61026;BME280;46911;32.650;-16.902;2023-05-11T07:57:13;101801.50;;;19.99;64.68
61026;BME280;46911;32.650;-16.902;2023-05-11T07:59:16;101788.69;;;19.91;64.24
61026;BME280;46911;32.650;-16.902;2023-05-11T08:01:17;101795.69;;;20.03;64.43
61026;BME280;46911;32.650;-16.902;2023-05-11T08:03:21;101784.84;;;19.94;64.45
61026;BME280;46911;32.650;-16.902;2023-05-11T08:05:22;101801.69;;;20.07;64.61
61026;BME280;46911;32.650;-16.902;2023-05-11T08:07:23;101793.97;;;20.02;65.10
61026;BME280;46911;32.650;-16.902;2023-05-11T08:09:26;101793.84;;;20.04;64.66
61026;BME280;46911;32.650;-16.902;2023-05-11T08:11:30;101793.56;;;20.07;63.96
61026;BME280;46911;32.650;-16.902;2023-05-11T08:13:33;101808.97;;;20.16;63.52
61026;BME280;46911;32.650;-16.902;2023-05-11T08:15:34;101814.81;;;20.21;63.03
61026;BME280;46911;32.650;-16.902;2023-05-11T08:17:34;101801.69;;;20.17;63.08
61026;BME280;46911;32.650;-16.902;2023-05-11T08:19:36;101786.72;;;20.13;63.61
61026;BME280;46911;32.650;-16.902;2023-05-11T08:21:39;101810.69;;;20.27;64.15
61026;BME280;46911;32.650;-16.902;2023-05-11T08:23:45;101820.25;;;20.31;63.60
61026;BME280;46911;32.650;-16.902;2023-05-11T08:25:50;101809.81;;;20.27;63.94
61026;BME280;46911;32.650;-16.902;2023-05-11T08:27:53;101824.97;;;20.49;63.86
61026;BME280;46911;32.650;-16.902;2023-05-11T08:29:54;101821.38;;;20.38;63.94
61026;BME280;46911;32.650;-16.902;2023-05-11T08:31:55;101827.66;;;20.39;63.67
61026;BME280;46911;32.650;-16.902;2023-05-11T08:33:59;101820.81;;;20.35;64.13
61026;BME280;46911;32.650;-16.902;2023-05-11T08:36:00;101813.25;;;20.29;63.77
61026;BME280;46911;32.650;-16.902;2023-05-11T08:38:04;101841.91;;;20.51;64.69
61026;BME280;46911;32.650;-16.902;2023-05-11T08:40:10;101821.13;;;20.51;64.80
61026;BME280;46911;32.650;-16.902;2023-05-11T08:42:15;101834.38;;;20.84;65.20
61026;BME280;46911;32.650;-16.902;2023-05-11T08:44:19;101827.53;;;20.89;64.52
61026;BME280;46911;32.650;-16.902;2023-05-11T08:46:23;101818.84;;;20.86;64.07
61026;BME280;46911;32.650;-16.902;2023-05-11T08:48:26;101823.75;;;21.20;63.54
61026;BME280;46911;32.650;-16.902;2023-05-11T08:50:30;101811.94;;;21.59;62.28
61026;BME280;46911;32.650;-16.902;2023-05-11T08:52:34;101840.03;;;21.95;61.46
61026;BME280;46911;32.650;-16.902;2023-05-11T08:54:35;101836.22;;;21.88;61.61
61026;BME280;46911;32.650;-16.902;2023-05-11T08:56:38;101843.03;;;22.20;60.67
61026;BME280;46911;32.650;-16.902;2023-05-11T08:58:41;101830.03;;;22.14;61.21
61026;BME280;46911;32.650;-16.902;2023-05-11T09:00:43;101836.50;;;22.31;60.44
61026;BME280;46911;32.650;-16.902;2023-05-11T09:02:44;101847.38;;;22.31;60.89
61026;BME280;46911;32.650;-16.902;2023-05-11T09:04:46;101832.31;;;22.18;61.25
61026;BME280;46911;32.650;-16.902;2023-05-11T09:06:49;101822.34;;;22.37;60.88
61026;BME280;46911;32.650;-16.902;2023-05-11T09:08:52;101816.41;;;22.23;57.89
61026;BME280;46911;32.650;-16.902;2023-05-11T09:10:53;101819.03;;;22.33;56.46
61026;BME280;46911;32.650;-16.902;2023-05-11T09:12:54;101818.69;;;22.46;54.90
61026;BME280;46911;32.650;-16.902;2023-05-11T09:14:55;101809.13;;;22.42;56.93
61026;BME280;46911;32.650;-16.902;2023-05-11T09:16:56;101819.88;;;22.44;57.53
61026;BME280;46911;32.650;-16.902;2023-05-11T09:19:01;101834.09;;;22.82;56.80
61026;BME280;46911;32.650;-16.902;2023-05-11T09:21:09;101824.03;;;23.00;56.51
61026;BME280;46911;32.650;-16.902;2023-05-11T09:23:15;101824.16;;;23.78;53.62
61026;BME280;46911;32.650;-16.902;2023-05-11T09:25:20;101834.22;;;23.43;55.09
61026;BME280;46911;32.650;-16.902;2023-05-11T09:27:24;101833.50;;;23.75;55.15
61026;BME280;46911;32.650;-16.902;2023-05-11T09:29:27;101819.16;;;23.65;55.41
61026;BME280;46911;32.650;-16.902;2023-05-11T09:33:35;101828.03;;;23.67;55.76
61026;BME280;46911;32.650;-16.902;2023-05-11T09:35:38;101835.72;;;23.80;55.26
61026;BME280;46911;32.650;-16.902;2023-05-11T09:37:58;101818.94;;;23.93;55.54
61026;BME280;46911;32.650;-16.902;2023-05-11T09:40:00;101834.22;;;24.61;54.10
61026;BME280;46911;32.650;-16.902;2023-05-11T09:42:18;101837.03;;;24.10;55.03
61026;BME280;46911;32.650;-16.902;2023-05-11T09:44:30;101831.31;;;24.54;52.93
61026;BME280;46911;32.650;-16.902;2023-05-11T09:46:31;101833.56;;;24.67;52.77
61026;BME280;46911;32.650;-16.902;2023-05-11T09:48:32;101844.91;;;25.45;51.12
61026;BME280;46911;32.650;-16.902;2023-05-11T09:50:37;101843.28;;;24.78;52.01
61026;BME280;46911;32.650;-16.902;2023-05-11T09:52:48;101850.22;;;24.39;52.67
61026;BME280;46911;32.650;-16.902;2023-05-11T09:54:51;101847.47;;;24.15;53.63
61026;BME280;46911;32.650;-16.902;2023-05-11T09:56:54;101840.13;;;23.72;54.57
61026;BME280;46911;32.650;-16.902;2023-05-11T09:58:57;101850.63;;;23.94;54.52
61026;BME280;46911;32.650;-16.902;2023-05-11T10:01:03;101852.53;;;24.01;55.00
61026;BME280;46911;32.650;-16.902;2023-05-11T10:03:07;101835.28;;;23.58;55.97
61026;BME280;46911;32.650;-16.902;2023-05-11T10:05:11;101830.22;;;23.63;56.27
61026;BME280;46911;32.650;-16.902;2023-05-11T10:07:29;101834.66;;;24.07;54.34
61026;BME280;46911;32.650;-16.902;2023-05-11T10:09:32;101837.03;;;23.67;54.30
61026;BME280;46911;32.650;-16.902;2023-05-11T10:11:35;101838.59;;;24.13;53.85
61026;BME280;46911;32.650;-16.902;2023-05-11T10:13:43;101847.66;;;24.38;53.07
61026;BME280;46911;32.650;-16.902;2023-05-11T10:15:44;101827.72;;;23.78;54.59
61026;BME280;46911;32.650;-16.902;2023-05-11T10:17:46;101842.00;;;24.15;55.01
61026;BME280;46911;32.650;-16.902;2023-05-11T10:19:59;101839.34;;;23.88;55.59
61026;BME280;46911;32.650;-16.902;2023-05-11T10:22:06;101858.28;;;23.90;54.61
61026;BME280;46911;32.650;-16.902;2023-05-11T10:24:11;101829.06;;;24.17;53.21
61026;BME280;46911;32.650;-16.902;2023-05-11T10:26:13;101860.19;;;24.90;53.08
61026;BME280;46911;32.650;-16.902;2023-05-11T10:28:15;101843.03;;;25.29;52.34
61026;BME280;46911;32.650;-16.902;2023-05-11T10:30:19;101848.53;;;25.21;50.65
61026;BME280;46911;32.650;-16.902;2023-05-11T10:32:23;101856.44;;;24.83;51.55
61026;BME280;46911;32.650;-16.902;2023-05-11T10:34:27;101854.91;;;24.72;50.48
61026;BME280;46911;32.650;-16.902;2023-05-11T10:36:31;101855.41;;;24.92;49.48
61026;BME280;46911;32.650;-16.902;2023-05-11T10:38:35;101870.22;;;25.06;50.37
61026;BME280;46911;32.650;-16.902;2023-05-11T10:40:43;101865.50;;;25.72;48.92
61026;BME280;46911;32.650;-16.902;2023-05-11T10:43:34;101884.25;;;25.76;49.03
61026;BME280;46911;32.650;-16.902;2023-05-11T10:45:21;101877.13;;;26.37;48.63